sensor_id;sensor_type;location;lat;lon;timestamp;temperature;humidity
16154;DHT22;8182;55.648;13.208;2023-05-07T00:02:28;4.10;99.90
16154;DHT22;8182;55.648;13.208;2023-05-07T00:04:55;4.10;99.90
16154;DHT22;8182;55.648;13.208;2023-05-07T00:07:24;4.10;99.90
16154;DHT22;8182;55.648;13.208;2023-05-07T00:09:51;4.10;99.90
16154;DHT22;8182;55.648;13.208;2023-05-07T00:12:19;4.00;99.90
16154;DHT22;8182;55.648;13.208;2023-05-07T00:14:46;4.00;99.90
16154;DHT22;8182;55.648;13.208;2023-05-07T00:17:18;4.00;99.90
16154;DHT22;8182;55.648;13.208;2023-05-07T00:19:47;3.90;99.90
16154;DHT22;8182;55.648;13.208;2023-05-07T00:22:14;3.90;99.90
16154;DHT22;8182;55.648;13.208;2023-05-07T00:24:43;4.00;99.90
16154;DHT22;8182;55.648;13.208;2023-05-07T00:27:10;4.00;99.90
16154;DHT22;8182;55.648;13.208;2023-05-07T00:29:37;4.00;99.90
16154;DHT22;8182;55.648;13.208;2023-05-07T00:32:04;4.00;99.90
16154;DHT22;8182;55.648;13.208;2023-05-07T00:34:32;3.90;99.90
16154;DHT22;8182;55.648;13.208;2023-05-07T00:37:01;3.90;99.90
16154;DHT22;8182;55.648;13.208;2023-05-07T00:39:28;3.90;99.90
16154;DHT22;8182;55.648;13.208;2023-05-07T00:41:55;3.90;99.90
16154;DHT22;8182;55.648;13.208;2023-05-07T00:44:22;3.90;99.90
16154;DHT22;8182;55.648;13.208;2023-05-07T00:46:49;3.90;99.90
16154;DHT22;8182;55.648;13.208;2023-05-07T00:49:16;3.90;99.90
16154;DHT22;8182;55.648;13.208;2023-05-07T00:51:45;3.90;99.90
16154;DHT22;8182;55.648;13.208;2023-05-07T00:54:13;3.90;99.90
16154;DHT22;8182;55.648;13.208;2023-05-07T00:56:41;3.90;99.90
16154;DHT22;8182;55.648;13.208;2023-05-07T00:59:08;3.90;99.90
16154;DHT22;8182;55.648;13.208;2023-05-07T01:01:35;3.90;99.90
16154;DHT22;8182;55.648;13.208;2023-05-07T01:04:02;3.80;99.90
16154;DHT22;8182;55.648;13.208;2023-05-07T01:06:30;3.80;99.90
16154;DHT22;8182;55.648;13.208;2023-05-07T01:08:58;3.80;99.90
16154;DHT22;8182;55.648;13.208;2023-05-07T01:11:27;3.80;99.90
16154;DHT22;8182;55.648;13.208;2023-05-07T01:13:55;3.90;99.90
16154;DHT22;8182;55.648;13.208;2023-05-07T01:16:22;3.90;99.90
16154;DHT22;8182;55.648;13.208;2023-05-07T01:18:49;3.90;99.90
16154;DHT22;8182;55.648;13.208;2023-05-07T01:21:17;3.90;99.90
16154;DHT22;8182;55.648;13.208;2023-05-07T01:23:47;3.90;99.90
16154;DHT22;8182;55.648;13.208;2023-05-07T01:26:14;3.90;99.90
16154;DHT22;8182;55.648;13.208;2023-05-07T01:28:42;3.80;99.90
16154;DHT22;8182;55.648;13.208;2023-05-07T01:31:10;3.80;99.90
16154;DHT22;8182;55.648;13.208;2023-05-07T01:33:48;3.80;99.90
16154;DHT22;8182;55.648;13.208;2023-05-07T01:36:17;3.80;99.90
16154;DHT22;8182;55.648;13.208;2023-05-07T01:38:46;3.80;99.90
16154;DHT22;8182;55.648;13.208;2023-05-07T01:41:13;3.80;99.90
16154;DHT22;8182;55.648;13.208;2023-05-07T01:43:44;3.80;99.90
16154;DHT22;8182;55.648;13.208;2023-05-07T01:46:15;3.80;99.90
16154;DHT22;8182;55.648;13.208;2023-05-07T01:48:45;3.80;99.90
16154;DHT22;8182;55.648;13.208;2023-05-07T01:51:12;3.90;99.90
16154;DHT22;8182;55.648;13.208;2023-05-07T01:53:40;3.80;99.90
16154;DHT22;8182;55.648;13.208;2023-05-07T01:56:10;3.90;99.90
16154;DHT22;8182;55.648;13.208;2023-05-07T01:58:37;3.80;99.90
16154;DHT22;8182;55.648;13.208;2023-05-07T02:01:04;3.80;99.90
16154;DHT22;8182;55.648;13.208;2023-05-07T02:03:31;3.80;99.90
16154;DHT22;8182;55.648;13.208;2023-05-07T02:05:58;3.80;99.90
16154;DHT22;8182;55.648;13.208;2023-05-07T02:08:25;3.80;99.90
16154;DHT22;8182;55.648;13.208;2023-05-07T02:10:51;3.80;99.90
16154;DHT22;8182;55.648;13.208;2023-05-07T02:13:20;3.80;99.90
16154;DHT22;8182;55.648;13.208;2023-05-07T02:15:48;3.80;99.90
16154;DHT22;8182;55.648;13.208;2023-05-07T02:18:16;3.80;99.90
16154;DHT22;8182;55.648;13.208;2023-05-07T02:20:44;3.80;99.90
16154;DHT22;8182;55.648;13.208;2023-05-07T02:23:11;3.80;99.90
16154;DHT22;8182;55.648;13.208;2023-05-07T02:25:38;3.80;99.90
16154;DHT22;8182;55.648;13.208;2023-05-07T02:28:05;3.80;99.90
16154;DHT22;8182;55.648;13.208;2023-05-07T02:30:33;3.80;99.90
16154;DHT22;8182;55.648;13.208;2023-05-07T02:33:00;3.80;99.90
16154;DHT22;8182;55.648;13.208;2023-05-07T02:35:27;3.80;99.90
16154;DHT22;8182;55.648;13.208;2023-05-07T02:37:54;3.80;99.90
16154;DHT22;8182;55.648;13.208;2023-05-07T02:40:21;3.80;99.90
16154;DHT22;8182;55.648;13.208;2023-05-07T02:42:48;3.80;99.90
16154;DHT22;8182;55.648;13.208;2023-05-07T02:45:15;3.80;99.90
16154;DHT22;8182;55.648;13.208;2023-05-07T02:47:43;3.80;99.90
16154;DHT22;8182;55.648;13.208;2023-05-07T02:50:14;3.80;99.90
16154;DHT22;8182;55.648;13.208;2023-05-07T02:52:41;3.80;99.90
16154;DHT22;8182;55.648;13.208;2023-05-07T02:55:09;3.80;99.90
16154;DHT22;8182;55.648;13.208;2023-05-07T02:57:36;3.80;99.90
16154;DHT22;8182;55.648;13.208;2023-05-07T03:00:13;3.80;99.90
16154;DHT22;8182;55.648;13.208;2023-05-07T03:02:42;3.80;99.90
16154;DHT22;8182;55.648;13.208;2023-05-07T03:05:10;3.70;99.90
16154;DHT22;8182;55.648;13.208;2023-05-07T03:07:37;3.70;99.90
16154;DHT22;8182;55.648;13.208;2023-05-07T03:10:05;3.70;99.90
16154;DHT22;8182;55.648;13.208;2023-05-07T03:12:32;3.70;99.90
16154;DHT22;8182;55.648;13.208;2023-05-07T03:14:59;3.70;99.90
16154;DHT22;8182;55.648;13.208;2023-05-07T03:17:26;3.70;99.90
16154;DHT22;8182;55.648;13.208;2023-05-07T03:19:55;3.70;99.90
16154;DHT22;8182;55.648;13.208;2023-05-07T03:22:22;3.70;99.90
16154;DHT22;8182;55.648;13.208;2023-05-07T03:24:49;3.70;99.90
16154;DHT22;8182;55.648;13.208;2023-05-07T03:27:16;3.70;99.90
16154;DHT22;8182;55.648;13.208;2023-05-07T03:29:43;3.60;99.90
16154;DHT22;8182;55.648;13.208;2023-05-07T03:32:10;3.70;99.90
16154;DHT22;8182;55.648;13.208;2023-05-07T03:34:37;3.70;99.90
16154;DHT22;8182;55.648;13.208;2023-05-07T03:37:05;3.70;99.90
16154;DHT22;8182;55.648;13.208;2023-05-07T03:39:32;3.60;99.90
16154;DHT22;8182;55.648;13.208;2023-05-07T03:42:00;3.60;99.90
16154;DHT22;8182;55.648;13.208;2023-05-07T03:44:28;3.60;99.90
16154;DHT22;8182;55.648;13.208;2023-05-07T03:46:55;3.60;99.90
16154;DHT22;8182;55.648;13.208;2023-05-07T03:49:22;3.70;99.90
16154;DHT22;8182;55.648;13.208;2023-05-07T03:51:49;3.70;99.90
16154;DHT22;8182;55.648;13.208;2023-05-07T03:54:17;3.70;99.90
16154;DHT22;8182;55.648;13.208;2023-05-07T03:56:44;3.80;99.90
16154;DHT22;8182;55.648;13.208;2023-05-07T03:59:12;3.80;99.90
16154;DHT22;8182;55.648;13.208;2023-05-07T04:01:39;3.80;99.90
16154;DHT22;8182;55.648;13.208;2023-05-07T04:04:06;3.90;99.90
16154;DHT22;8182;55.648;13.208;2023-05-07T04:06:36;3.90;99.90
16154;DHT22;8182;55.648;13.208;2023-05-07T04:09:03;4.00;99.90
16154;DHT22;8182;55.648;13.208;2023-05-07T04:11:32;4.00;99.90
16154;DHT22;8182;55.648;13.208;2023-05-07T04:13:59;4.00;99.90
16154;DHT22;8182;55.648;13.208;2023-05-07T04:16:26;4.00;99.90
16154;DHT22;8182;55.648;13.208;2023-05-07T04:18:53;4.00;99.90
16154;DHT22;8182;55.648;13.208;2023-05-07T04:21:21;4.10;99.90
16154;DHT22;8182;55.648;13.208;2023-05-07T04:23:49;4.10;99.90
16154;DHT22;8182;55.648;13.208;2023-05-07T04:26:16;4.10;99.90
16154;DHT22;8182;55.648;13.208;2023-05-07T04:28:44;4.20;99.90
16154;DHT22;8182;55.648;13.208;2023-05-07T04:31:12;4.20;99.90
16154;DHT22;8182;55.648;13.208;2023-05-07T04:33:38;4.30;99.90
16154;DHT22;8182;55.648;13.208;2023-05-07T04:36:06;4.30;99.90
16154;DHT22;8182;55.648;13.208;2023-05-07T04:38:33;4.30;99.90
16154;DHT22;8182;55.648;13.208;2023-05-07T04:41:03;4.40;99.90
16154;DHT22;8182;55.648;13.208;2023-05-07T04:43:30;4.50;99.90
16154;DHT22;8182;55.648;13.208;2023-05-07T04:45:59;4.60;99.90
16154;DHT22;8182;55.648;13.208;2023-05-07T04:48:32;4.70;99.90
16154;DHT22;8182;55.648;13.208;2023-05-07T04:50:59;4.80;99.90
16154;DHT22;8182;55.648;13.208;2023-05-07T04:53:26;4.90;99.90
16154;DHT22;8182;55.648;13.208;2023-05-07T04:55:55;4.90;99.90
16154;DHT22;8182;55.648;13.208;2023-05-07T04:58:30;5.00;99.90
16154;DHT22;8182;55.648;13.208;2023-05-07T05:00:58;5.10;99.90
16154;DHT22;8182;55.648;13.208;2023-05-07T05:03:25;5.20;99.90
16154;DHT22;8182;55.648;13.208;2023-05-07T05:05:52;5.30;99.90
16154;DHT22;8182;55.648;13.208;2023-05-07T05:08:20;5.30;99.90
16154;DHT22;8182;55.648;13.208;2023-05-07T05:10:47;5.40;99.90
16154;DHT22;8182;55.648;13.208;2023-05-07T05:13:15;5.50;99.90
16154;DHT22;8182;55.648;13.208;2023-05-07T05:15:42;5.50;99.90
16154;DHT22;8182;55.648;13.208;2023-05-07T05:18:11;5.50;99.90
16154;DHT22;8182;55.648;13.208;2023-05-07T05:20:51;5.60;99.90
16154;DHT22;8182;55.648;13.208;2023-05-07T05:23:18;5.70;99.90
16154;DHT22;8182;55.648;13.208;2023-05-07T05:25:48;5.90;99.90
16154;DHT22;8182;55.648;13.208;2023-05-07T05:28:15;6.00;99.90
16154;DHT22;8182;55.648;13.208;2023-05-07T05:30:42;6.30;99.90
16154;DHT22;8182;55.648;13.208;2023-05-07T05:33:11;6.40;99.90
16154;DHT22;8182;55.648;13.208;2023-05-07T05:35:38;6.40;99.90
16154;DHT22;8182;55.648;13.208;2023-05-07T05:38:05;6.60;99.90
16154;DHT22;8182;55.648;13.208;2023-05-07T05:40:32;6.80;99.90
16154;DHT22;8182;55.648;13.208;2023-05-07T05:42:59;6.90;99.90
16154;DHT22;8182;55.648;13.208;2023-05-07T05:45:26;6.90;99.90
16154;DHT22;8182;55.648;13.208;2023-05-07T05:47:56;6.90;99.90
16154;DHT22;8182;55.648;13.208;2023-05-07T05:50:24;6.90;99.90
16154;DHT22;8182;55.648;13.208;2023-05-07T05:52:51;7.20;99.90
16154;DHT22;8182;55.648;13.208;2023-05-07T05:55:18;7.30;99.90
16154;DHT22;8182;55.648;13.208;2023-05-07T05:57:45;7.60;99.90
16154;DHT22;8182;55.648;13.208;2023-05-07T06:00:13;7.60;99.90
16154;DHT22;8182;55.648;13.208;2023-05-07T06:02:44;7.80;99.90
16154;DHT22;8182;55.648;13.208;2023-05-07T06:05:11;8.20;99.90
16154;DHT22;8182;55.648;13.208;2023-05-07T06:07:43;8.40;99.90
16154;DHT22;8182;55.648;13.208;2023-05-07T06:10:11;8.70;99.90
16154;DHT22;8182;55.648;13.208;2023-05-07T06:12:42;8.80;99.90
16154;DHT22;8182;55.648;13.208;2023-05-07T06:15:12;8.80;99.90
16154;DHT22;8182;55.648;13.208;2023-05-07T06:17:40;8.70;99.90
16154;DHT22;8182;55.648;13.208;2023-05-07T06:20:08;8.90;99.90
16154;DHT22;8182;55.648;13.208;2023-05-07T06:22:35;9.20;99.90
16154;DHT22;8182;55.648;13.208;2023-05-07T06:25:04;9.30;99.90
16154;DHT22;8182;55.648;13.208;2023-05-07T06:27:32;9.20;99.90
16154;DHT22;8182;55.648;13.208;2023-05-07T06:29:59;9.10;99.90
16154;DHT22;8182;55.648;13.208;2023-05-07T06:32:26;9.10;99.90
16154;DHT22;8182;55.648;13.208;2023-05-07T06:34:56;8.90;99.90
16154;DHT22;8182;55.648;13.208;2023-05-07T06:37:23;8.80;99.90
16154;DHT22;8182;55.648;13.208;2023-05-07T06:39:50;8.80;99.90
16154;DHT22;8182;55.648;13.208;2023-05-07T06:42:18;9.00;99.90
16154;DHT22;8182;55.648;13.208;2023-05-07T06:44:45;9.20;99.90
16154;DHT22;8182;55.648;13.208;2023-05-07T06:47:13;9.40;99.90
16154;DHT22;8182;55.648;13.208;2023-05-07T06:49:45;9.60;99.90
16154;DHT22;8182;55.648;13.208;2023-05-07T06:52:12;10.00;99.90
16154;DHT22;8182;55.648;13.208;2023-05-07T06:54:40;10.20;99.90
16154;DHT22;8182;55.648;13.208;2023-05-07T06:57:07;10.50;99.90
16154;DHT22;8182;55.648;13.208;2023-05-07T06:59:36;10.60;99.90
16154;DHT22;8182;55.648;13.208;2023-05-07T07:02:08;10.80;99.90
16154;DHT22;8182;55.648;13.208;2023-05-07T07:04:41;11.00;99.90
16154;DHT22;8182;55.648;13.208;2023-05-07T07:07:08;11.10;99.90
16154;DHT22;8182;55.648;13.208;2023-05-07T07:09:35;11.40;99.90
16154;DHT22;8182;55.648;13.208;2023-05-07T07:12:02;11.50;99.90
16154;DHT22;8182;55.648;13.208;2023-05-07T07:14:29;11.60;99.90
16154;DHT22;8182;55.648;13.208;2023-05-07T07:16:58;11.80;99.90
16154;DHT22;8182;55.648;13.208;2023-05-07T07:19:26;12.20;99.90
16154;DHT22;8182;55.648;13.208;2023-05-07T07:21:53;12.40;99.90
16154;DHT22;8182;55.648;13.208;2023-05-07T07:24:20;12.70;99.90
16154;DHT22;8182;55.648;13.208;2023-05-07T07:26:47;12.80;99.90
16154;DHT22;8182;55.648;13.208;2023-05-07T07:29:14;12.50;99.90
16154;DHT22;8182;55.648;13.208;2023-05-07T07:31:44;12.80;99.90
16154;DHT22;8182;55.648;13.208;2023-05-07T07:34:12;13.00;99.90
16154;DHT22;8182;55.648;13.208;2023-05-07T07:36:39;13.10;99.90
16154;DHT22;8182;55.648;13.208;2023-05-07T07:39:06;13.40;99.90
16154;DHT22;8182;55.648;13.208;2023-05-07T07:41:33;13.60;99.90
16154;DHT22;8182;55.648;13.208;2023-05-07T07:44:00;13.70;99.90
16154;DHT22;8182;55.648;13.208;2023-05-07T07:46:29;13.60;99.90
16154;DHT22;8182;55.648;13.208;2023-05-07T07:48:56;14.00;99.90
16154;DHT22;8182;55.648;13.208;2023-05-07T07:51:26;14.30;99.90
16154;DHT22;8182;55.648;13.208;2023-05-07T07:53:53;14.20;99.90
16154;DHT22;8182;55.648;13.208;2023-05-07T07:56:20;14.50;99.90
16154;DHT22;8182;55.648;13.208;2023-05-07T07:58:47;14.70;99.90
16154;DHT22;8182;55.648;13.208;2023-05-07T08:01:14;14.60;99.90
16154;DHT22;8182;55.648;13.208;2023-05-07T08:03:42;14.80;99.90
16154;DHT22;8182;55.648;13.208;2023-05-07T08:06:09;14.90;99.90
16154;DHT22;8182;55.648;13.208;2023-05-07T08:08:37;15.00;99.90
16154;DHT22;8182;55.648;13.208;2023-05-07T08:11:05;15.10;99.90
16154;DHT22;8182;55.648;13.208;2023-05-07T08:13:38;15.00;99.90
16154;DHT22;8182;55.648;13.208;2023-05-07T08:16:05;15.20;99.90
16154;DHT22;8182;55.648;13.208;2023-05-07T08:18:32;15.40;99.90
16154;DHT22;8182;55.648;13.208;2023-05-07T08:20:59;15.30;99.90
16154;DHT22;8182;55.648;13.208;2023-05-07T08:23:26;15.40;99.90
16154;DHT22;8182;55.648;13.208;2023-05-07T08:25:54;15.40;99.90
16154;DHT22;8182;55.648;13.208;2023-05-07T08:28:21;15.80;99.90
16154;DHT22;8182;55.648;13.208;2023-05-07T08:30:50;15.80;99.90
16154;DHT22;8182;55.648;13.208;2023-05-07T08:33:17;15.80;99.90
16154;DHT22;8182;55.648;13.208;2023-05-07T08:35:44;15.70;99.90
16154;DHT22;8182;55.648;13.208;2023-05-07T08:38:10;15.60;99.90
16154;DHT22;8182;55.648;13.208;2023-05-07T08:40:39;15.70;99.90
16154;DHT22;8182;55.648;13.208;2023-05-07T08:43:08;16.00;99.90
16154;DHT22;8182;55.648;13.208;2023-05-07T08:45:35;16.10;99.90
16154;DHT22;8182;55.648;13.208;2023-05-07T08:48:09;16.40;99.90
16154;DHT22;8182;55.648;13.208;2023-05-07T08:50:37;16.60;99.90
16154;DHT22;8182;55.648;13.208;2023-05-07T08:53:04;16.90;99.90
16154;DHT22;8182;55.648;13.208;2023-05-07T08:55:32;16.90;99.90
16154;DHT22;8182;55.648;13.208;2023-05-07T08:57:59;17.00;99.90
16154;DHT22;8182;55.648;13.208;2023-05-07T09:00:28;17.20;99.90
16154;DHT22;8182;55.648;13.208;2023-05-07T09:02:56;17.40;99.90
16154;DHT22;8182;55.648;13.208;2023-05-07T09:05:23;17.00;99.90
16154;DHT22;8182;55.648;13.208;2023-05-07T09:07:52;17.30;99.90
16154;DHT22;8182;55.648;13.208;2023-05-07T09:10:21;17.10;99.90
16154;DHT22;8182;55.648;13.208;2023-05-07T09:12:48;17.00;99.90
16154;DHT22;8182;55.648;13.208;2023-05-07T09:15:15;17.30;99.90
16154;DHT22;8182;55.648;13.208;2023-05-07T09:17:43;16.90;99.90
16154;DHT22;8182;55.648;13.208;2023-05-07T09:20:11;16.80;99.90
16154;DHT22;8182;55.648;13.208;2023-05-07T09:22:38;16.60;99.90
16154;DHT22;8182;55.648;13.208;2023-05-07T09:25:06;16.90;99.90
16154;DHT22;8182;55.648;13.208;2023-05-07T09:27:33;17.20;99.90
16154;DHT22;8182;55.648;13.208;2023-05-07T09:30:03;17.90;99.90
16154;DHT22;8182;55.648;13.208;2023-05-07T09:32:34;18.10;99.90
16154;DHT22;8182;55.648;13.208;2023-05-07T09:35:03;17.80;99.90
16154;DHT22;8182;55.648;13.208;2023-05-07T09:37:31;18.20;99.90
16154;DHT22;8182;55.648;13.208;2023-05-07T09:39:58;17.80;99.90
16154;DHT22;8182;55.648;13.208;2023-05-07T09:42:25;18.00;99.90
16154;DHT22;8182;55.648;13.208;2023-05-07T09:44:53;18.10;99.90
16154;DHT22;8182;55.648;13.208;2023-05-07T09:47:25;18.40;99.90
16154;DHT22;8182;55.648;13.208;2023-05-07T09:50:05;19.00;99.90
16154;DHT22;8182;55.648;13.208;2023-05-07T09:52:34;18.80;99.90
16154;DHT22;8182;55.648;13.208;2023-05-07T09:55:03;18.40;99.90
16154;DHT22;8182;55.648;13.208;2023-05-07T09:57:32;17.90;99.90
16154;DHT22;8182;55.648;13.208;2023-05-07T10:00:01;18.50;99.90
16154;DHT22;8182;55.648;13.208;2023-05-07T10:02:30;18.10;99.90
16154;DHT22;8182;55.648;13.208;2023-05-07T10:04:58;18.30;99.90
16154;DHT22;8182;55.648;13.208;2023-05-07T10:07:27;18.00;99.90
16154;DHT22;8182;55.648;13.208;2023-05-07T10:09:55;18.00;99.90
16154;DHT22;8182;55.648;13.208;2023-05-07T10:12:23;17.90;99.90
16154;DHT22;8182;55.648;13.208;2023-05-07T10:14:57;18.60;99.90
16154;DHT22;8182;55.648;13.208;2023-05-07T10:17:26;18.40;99.90
16154;DHT22;8182;55.648;13.208;2023-05-07T10:19:54;17.50;99.90
16154;DHT22;8182;55.648;13.208;2023-05-07T10:22:21;17.90;99.90
16154;DHT22;8182;55.648;13.208;2023-05-07T10:24:52;18.20;99.90
16154;DHT22;8182;55.648;13.208;2023-05-07T10:27:21;18.40;99.90
16154;DHT22;8182;55.648;13.208;2023-05-07T10:29:55;18.20;99.90
16154;DHT22;8182;55.648;13.208;2023-05-07T10:32:36;18.00;99.90
16154;DHT22;8182;55.648;13.208;2023-05-07T10:35:11;18.20;99.90
16154;DHT22;8182;55.648;13.208;2023-05-07T10:37:41;18.30;99.90
16154;DHT22;8182;55.648;13.208;2023-05-07T10:40:11;18.00;99.90
16154;DHT22;8182;55.648;13.208;2023-05-07T10:42:39;18.60;99.90
16154;DHT22;8182;55.648;13.208;2023-05-07T10:45:20;19.20;99.90
16154;DHT22;8182;55.648;13.208;2023-05-07T10:48:06;19.20;99.90
16154;DHT22;8182;55.648;13.208;2023-05-07T10:50:34;19.00;99.90
16154;DHT22;8182;55.648;13.208;2023-05-07T10:53:23;19.10;99.90
16154;DHT22;8182;55.648;13.208;2023-05-07T10:56:23;18.70;99.90
16154;DHT22;8182;55.648;13.208;2023-05-07T10:58:50;18.60;99.90
16154;DHT22;8182;55.648;13.208;2023-05-07T11:01:50;18.80;99.90
16154;DHT22;8182;55.648;13.208;2023-05-07T11:04:18;19.30;99.90
16154;DHT22;8182;55.648;13.208;2023-05-07T11:10:06;18.50;99.90
16154;DHT22;8182;55.648;13.208;2023-05-07T11:12:53;17.80;99.90
16154;DHT22;8182;55.648;13.208;2023-05-07T11:15:44;18.30;99.90
16154;DHT22;8182;55.648;13.208;2023-05-07T11:18:14;18.30;99.90
16154;DHT22;8182;55.648;13.208;2023-05-07T11:20:56;18.50;99.90
16154;DHT22;8182;55.648;13.208;2023-05-07T11:23:55;18.70;99.90
16154;DHT22;8182;55.648;13.208;2023-05-07T11:26:23;18.00;99.90
16154;DHT22;8182;55.648;13.208;2023-05-07T11:28:51;17.60;99.90
16154;DHT22;8182;55.648;13.208;2023-05-07T11:31:23;17.80;99.90
16154;DHT22;8182;55.648;13.208;2023-05-07T11:33:54;17.40;99.90
16154;DHT22;8182;55.648;13.208;2023-05-07T11:36:22;17.40;99.90
16154;DHT22;8182;55.648;13.208;2023-05-07T11:38:50;17.80;99.90
16154;DHT22;8182;55.648;13.208;2023-05-07T11:41:17;17.40;99.90
16154;DHT22;8182;55.648;13.208;2023-05-07T11:43:56;17.60;99.90
16154;DHT22;8182;55.648;13.208;2023-05-07T11:46:27;17.40;99.90
16154;DHT22;8182;55.648;13.208;2023-05-07T11:48:55;17.50;99.90
16154;DHT22;8182;55.648;13.208;2023-05-07T11:51:24;17.40;99.90
16154;DHT22;8182;55.648;13.208;2023-05-07T11:53:51;17.50;99.90
16154;DHT22;8182;55.648;13.208;2023-05-07T11:56:18;17.20;99.90
16154;DHT22;8182;55.648;13.208;2023-05-07T11:58:47;17.20;99.90
16154;DHT22;8182;55.648;13.208;2023-05-07T12:01:15;17.20;99.90
16154;DHT22;8182;55.648;13.208;2023-05-07T12:03:45;16.90;99.90
16154;DHT22;8182;55.648;13.208;2023-05-07T12:06:17;16.60;99.90
16154;DHT22;8182;55.648;13.208;2023-05-07T12:08:47;16.30;99.90
16154;DHT22;8182;55.648;13.208;2023-05-07T12:11:22;16.30;99.90
16154;DHT22;8182;55.648;13.208;2023-05-07T12:13:56;16.60;99.90
16154;DHT22;8182;55.648;13.208;2023-05-07T12:16:23;16.60;99.90
16154;DHT22;8182;55.648;13.208;2023-05-07T12:18:50;16.50;99.90
16154;DHT22;8182;55.648;13.208;2023-05-07T12:21:22;16.50;99.90
16154;DHT22;8182;55.648;13.208;2023-05-07T12:23:52;16.60;99.90
16154;DHT22;8182;55.648;13.208;2023-05-07T12:26:20;16.80;99.90
16154;DHT22;8182;55.648;13.208;2023-05-07T12:28:47;16.70;99.90
16154;DHT22;8182;55.648;13.208;2023-05-07T12:31:14;16.50;99.90
16154;DHT22;8182;55.648;13.208;2023-05-07T12:33:42;16.40;99.90
16154;DHT22;8182;55.648;13.208;2023-05-07T12:36:12;16.40;99.90
16154;DHT22;8182;55.648;13.208;2023-05-07T12:38:41;16.50;99.90
16154;DHT22;8182;55.648;13.208;2023-05-07T12:41:09;16.40;99.90
16154;DHT22;8182;55.648;13.208;2023-05-07T12:43:38;16.40;99.90
16154;DHT22;8182;55.648;13.208;2023-05-07T12:46:06;16.30;99.90
16154;DHT22;8182;55.648;13.208;2023-05-07T12:48:36;16.00;99.90
16154;DHT22;8182;55.648;13.208;2023-05-07T12:51:06;16.20;99.90
16154;DHT22;8182;55.648;13.208;2023-05-07T12:53:41;16.50;99.90
16154;DHT22;8182;55.648;13.208;2023-05-07T12:56:09;16.40;99.90
16154;DHT22;8182;55.648;13.208;2023-05-07T12:58:36;16.20;99.90
16154;DHT22;8182;55.648;13.208;2023-05-07T13:01:05;16.50;99.90
16154;DHT22;8182;55.648;13.208;2023-05-07T13:03:34;16.20;99.90
16154;DHT22;8182;55.648;13.208;2023-05-07T13:06:02;16.20;99.90
16154;DHT22;8182;55.648;13.208;2023-05-07T13:08:31;16.30;99.90
16154;DHT22;8182;55.648;13.208;2023-05-07T13:11:00;16.10;99.90
16154;DHT22;8182;55.648;13.208;2023-05-07T13:13:29;16.20;99.90
16154;DHT22;8182;55.648;13.208;2023-05-07T13:15:56;16.00;99.90
16154;DHT22;8182;55.648;13.208;2023-05-07T13:18:24;16.00;99.90
16154;DHT22;8182;55.648;13.208;2023-05-07T13:20:52;16.00;99.90
16154;DHT22;8182;55.648;13.208;2023-05-07T13:23:19;16.20;99.90
16154;DHT22;8182;55.648;13.208;2023-05-07T13:25:49;16.20;99.90
16154;DHT22;8182;55.648;13.208;2023-05-07T13:28:17;16.20;99.90
16154;DHT22;8182;55.648;13.208;2023-05-07T13:30:47;16.20;99.90
16154;DHT22;8182;55.648;13.208;2023-05-07T13:33:14;16.00;99.90
16154;DHT22;8182;55.648;13.208;2023-05-07T13:35:42;16.10;99.90
16154;DHT22;8182;55.648;13.208;2023-05-07T13:38:09;16.10;99.90
16154;DHT22;8182;55.648;13.208;2023-05-07T13:40:36;15.80;99.90
16154;DHT22;8182;55.648;13.208;2023-05-07T13:43:03;15.80;99.90
16154;DHT22;8182;55.648;13.208;2023-05-07T13:45:31;15.90;99.90
16154;DHT22;8182;55.648;13.208;2023-05-07T13:47:58;16.10;99.90
16154;DHT22;8182;55.648;13.208;2023-05-07T13:50:26;16.00;99.90
16154;DHT22;8182;55.648;13.208;2023-05-07T13:52:55;16.10;99.90
16154;DHT22;8182;55.648;13.208;2023-05-07T13:55:23;15.80;99.90
16154;DHT22;8182;55.648;13.208;2023-05-07T13:57:55;16.00;99.90
16154;DHT22;8182;55.648;13.208;2023-05-07T14:00:23;15.80;99.90
16154;DHT22;8182;55.648;13.208;2023-05-07T14:02:51;15.70;99.90
16154;DHT22;8182;55.648;13.208;2023-05-07T14:05:19;15.70;99.90
16154;DHT22;8182;55.648;13.208;2023-05-07T14:07:46;15.60;99.90
16154;DHT22;8182;55.648;13.208;2023-05-07T14:10:15;15.60;99.90
16154;DHT22;8182;55.648;13.208;2023-05-07T14:12:42;15.70;99.90
16154;DHT22;8182;55.648;13.208;2023-05-07T14:15:09;15.70;99.90
16154;DHT22;8182;55.648;13.208;2023-05-07T14:17:39;15.70;99.90
16154;DHT22;8182;55.648;13.208;2023-05-07T14:20:08;15.80;99.90
16154;DHT22;8182;55.648;13.208;2023-05-07T14:22:36;15.70;99.90
16154;DHT22;8182;55.648;13.208;2023-05-07T14:25:07;15.70;99.90
16154;DHT22;8182;55.648;13.208;2023-05-07T14:27:35;15.80;99.90
16154;DHT22;8182;55.648;13.208;2023-05-07T14:30:02;15.50;99.90
16154;DHT22;8182;55.648;13.208;2023-05-07T14:32:29;15.40;99.90
16154;DHT22;8182;55.648;13.208;2023-05-07T14:34:56;15.30;99.90
16154;DHT22;8182;55.648;13.208;2023-05-07T14:37:25;15.30;99.90
16154;DHT22;8182;55.648;13.208;2023-05-07T14:39:54;15.30;99.90
16154;DHT22;8182;55.648;13.208;2023-05-07T14:42:21;15.30;99.90
16154;DHT22;8182;55.648;13.208;2023-05-07T14:44:58;15.30;99.90
16154;DHT22;8182;55.648;13.208;2023-05-07T14:47:25;15.50;99.90
16154;DHT22;8182;55.648;13.208;2023-05-07T14:49:52;15.50;99.90
16154;DHT22;8182;55.648;13.208;2023-05-07T14:52:20;15.50;99.90
16154;DHT22;8182;55.648;13.208;2023-05-07T14:54:48;15.40;99.90
16154;DHT22;8182;55.648;13.208;2023-05-07T14:57:15;15.30;99.90
16154;DHT22;8182;55.648;13.208;2023-05-07T14:59:46;15.10;99.90
16154;DHT22;8182;55.648;13.208;2023-05-07T15:03:55;15.10;99.90
16154;DHT22;8182;55.648;13.208;2023-05-07T15:06:23;15.00;99.90
16154;DHT22;8182;55.648;13.208;2023-05-07T15:09:02;15.10;99.90
16154;DHT22;8182;55.648;13.208;2023-05-07T15:11:29;15.10;99.90
16154;DHT22;8182;55.648;13.208;2023-05-07T15:14:05;15.00;99.90
16154;DHT22;8182;55.648;13.208;2023-05-07T15:16:32;15.00;99.90
16154;DHT22;8182;55.648;13.208;2023-05-07T15:19:01;15.00;99.90
16154;DHT22;8182;55.648;13.208;2023-05-07T15:21:29;15.10;99.90
16154;DHT22;8182;55.648;13.208;2023-05-07T15:23:56;15.00;99.90
16154;DHT22;8182;55.648;13.208;2023-05-07T15:26:23;14.80;99.90
16154;DHT22;8182;55.648;13.208;2023-05-07T15:28:51;14.70;99.90
16154;DHT22;8182;55.648;13.208;2023-05-07T15:31:17;14.80;99.90
16154;DHT22;8182;55.648;13.208;2023-05-07T15:33:45;14.80;99.90
16154;DHT22;8182;55.648;13.208;2023-05-07T15:36:17;14.80;99.90
16154;DHT22;8182;55.648;13.208;2023-05-07T15:38:44;14.70;99.90
16154;DHT22;8182;55.648;13.208;2023-05-07T15:41:11;14.70;99.90
16154;DHT22;8182;55.648;13.208;2023-05-07T15:43:44;14.60;99.90
16154;DHT22;8182;55.648;13.208;2023-05-07T15:46:17;14.60;99.90
16154;DHT22;8182;55.648;13.208;2023-05-07T15:48:46;14.50;99.90
16154;DHT22;8182;55.648;13.208;2023-05-07T15:51:15;14.50;99.90
16154;DHT22;8182;55.648;13.208;2023-05-07T15:53:42;14.50;99.90